Time;durP1;ratioP1;P1;durP2;ratioP2;P2;SDS_P1;SDS_P2;PMS_P1;PMS_P2;Temp;Humidity;BMP_temperature;BMP_pressure;BME280_temperature;BME280_humidity;BME280_pressure;Samples;Min_cycle;Max_cycle;Signal;HPM_P1;HPM_P2
2023/12/14 00:00:08;;;;;;;1.40;1.10;;;20.00;73.00;;;;;;2062978;28;20474;-68
2023/12/14 00:01:10;;;;;;;3.08;1.27;;;20.00;73.00;;;;;;2061889;28;20097;-68
2023/12/14 00:02:10;;;;;;;1.52;1.00;;;20.00;72.90;;;;;;2062235;28;20512;-67
2023/12/14 00:03:11;;;;;;;1.00;0.90;;;19.90;72.90;;;;;;2063463;28;20030;-68
2023/12/14 00:04:12;;;;;;;2.03;1.20;;;20.00;72.90;;;;;;2061503;28;20334;-68
2023/12/14 00:05:12;;;;;;;1.25;1.10;;;20.00;73.00;;;;;;2061376;28;20625;-67
2023/12/14 00:06:13;;;;;;;1.48;1.17;;;20.00;73.00;;;;;;2061756;28;20038;-67
2023/12/14 00:07:15;;;;;;;1.67;1.02;;;20.00;72.90;;;;;;2061940;28;20027;-68
2023/12/14 00:08:15;;;;;;;1.20;1.10;;;20.00;72.90;;;;;;2062906;28;20453;-68
2023/12/14 00:09:16;;;;;;;1.20;1.10;;;20.00;72.80;;;;;;2059999;28;20030;-67
2023/12/14 00:10:17;;;;;;;1.35;1.00;;;20.00;72.80;;;;;;2059574;28;20054;-68
2023/12/14 00:11:18;;;;;;;2.47;1.30;;;19.90;72.90;;;;;;2057064;28;20029;-68
2023/12/14 00:12:19;;;;;;;1.63;1.30;;;20.00;72.90;;;;;;2058792;28;20026;-68
2023/12/14 00:13:19;;;;;;;1.15;1.00;;;20.00;72.90;;;;;;2062984;28;20035;-67
2023/12/14 00:14:20;;;;;;;1.20;1.10;;;20.00;72.80;;;;;;2058816;28;20022;-67
2023/12/14 00:15:21;;;;;;;1.33;1.00;;;19.90;72.80;;;;;;2061447;28;20030;-68
2023/12/14 00:16:21;;;;;;;1.73;1.08;;;20.00;72.90;;;;;;2061373;28;20498;-67
2023/12/14 00:17:22;;;;;;;1.70;1.20;;;20.00;72.90;;;;;;2061344;28;20050;-68
2023/12/14 00:18:22;;;;;;;2.30;1.23;;;20.00;72.80;;;;;;2062818;28;20117;-67
2023/12/14 00:19:24;;;;;;;1.60;1.38;;;19.90;72.80;;;;;;2064012;28;20018;-68
2023/12/14 00:20:24;;;;;;;2.90;1.23;;;19.90;73.40;;;;;;2058937;28;20057;-68
2023/12/14 00:21:25;;;;;;;1.27;1.08;;;19.90;72.70;;;;;;2061922;28;20014;-68
2023/12/14 00:22:26;;;;;;;1.10;0.90;;;20.00;72.70;;;;;;2058946;28;20071;-68
2023/12/14 00:23:26;;;;;;;1.42;1.10;;;19.90;72.70;;;;;;2058679;28;20026;-68
2023/12/14 00:24:27;;;;;;;1.73;1.20;;;20.00;72.70;;;;;;2060664;28;20122;-68
2023/12/14 00:25:27;;;;;;;1.55;1.30;;;19.90;72.60;;;;;;2062455;28;20045;-68
2023/12/14 00:26:28;;;;;;;2.25;1.20;;;19.90;72.60;;;;;;2054894;28;20033;-68
2023/12/14 00:27:29;;;;;;;2.50;1.20;;;19.90;72.50;;;;;;2054348;28;20415;-67
2023/12/14 00:28:29;;;;;;;1.50;1.10;;;19.90;72.50;;;;;;2054491;28;20534;-68
2023/12/14 00:29:30;;;;;;;1.10;1.00;;;20.00;72.60;;;;;;2063115;28;20537;-67
2023/12/14 00:30:30;;;;;;;1.27;1.17;;;19.90;72.60;;;;;;2061214;28;20037;-68
2023/12/14 00:31:31;;;;;;;1.65;1.13;;;19.90;72.60;;;;;;2063285;28;20034;-68
2023/12/14 00:32:31;;;;;;;1.25;1.05;;;19.90;72.60;;;;;;2061266;28;20487;-67
2023/12/14 00:33:32;;;;;;;1.50;1.00;;;19.90;72.50;;;;;;2061938;28;20487;-68
2023/12/14 00:34:32;;;;;;;1.25;1.15;;;19.90;72.50;;;;;;2063617;28;20509;-67
2023/12/14 00:35:33;;;;;;;1.98;1.27;;;19.90;72.50;;;;;;2062165;28;20109;-67
2023/12/14 00:36:34;;;;;;;1.23;1.00;;;19.90;72.50;;;;;;2061811;28;20025;-67
2023/12/14 00:37:34;;;;;;;2.13;1.20;;;19.90;72.50;;;;;;2060976;28;20062;-67
2023/12/14 00:38:35;;;;;;;1.90;1.25;;;19.90;72.50;;;;;;2060629;28;20030;-68
2023/12/14 00:39:35;;;;;;;1.63;1.08;;;19.90;72.50;;;;;;2061531;28;20060;-67
2023/12/14 00:40:36;;;;;;;1.10;0.90;;;19.90;72.50;;;;;;2061081;28;20101;-67
2023/12/14 00:41:36;;;;;;;1.20;1.10;;;19.90;72.50;;;;;;2061354;28;20045;-68
2023/12/14 00:42:37;;;;;;;1.98;1.20;;;19.90;73.10;;;;;;2063468;28;20022;-68
2023/12/14 00:43:38;;;;;;;1.20;0.95;;;19.90;72.50;;;;;;2060983;28;20050;-68
2023/12/14 00:44:38;;;;;;;1.17;0.90;;;19.90;72.50;;;;;;2062476;28;20034;-68
2023/12/14 00:45:41;;;;;;;1.27;0.98;;;19.80;72.50;;;;;;2061073;28;20050;-67
2023/12/14 00:46:41;;;;;;;1.70;1.30;;;19.90;72.60;;;;;;2061315;28;20018;-67
2023/12/14 00:47:42;;;;;;;1.00;0.90;;;19.90;72.50;;;;;;2062350;28;21355;-67
2023/12/14 00:48:43;;;;;;;1.58;1.08;;;19.90;72.50;;;;;;2062932;28;20033;-67
2023/12/14 00:49:43;;;;;;;0.82;0.82;;;20.00;72.50;;;;;;2061731;28;20026;-67
2023/12/14 00:50:44;;;;;;;1.10;0.90;;;19.90;72.50;;;;;;2062110;28;20041;-68
2023/12/14 00:51:44;;;;;;;1.60;1.00;;;19.90;72.50;;;;;;2059382;28;20022;-68
2023/12/14 00:52:45;;;;;;;1.10;1.00;;;19.90;72.50;;;;;;2062773;28;20023;-68
2023/12/14 00:53:46;;;;;;;1.35;1.17;;;19.80;72.40;;;;;;2062532;28;20488;-68
2023/12/14 00:54:46;;;;;;;1.38;1.13;;;19.80;72.40;;;;;;2061862;28;20023;-68
2023/12/14 00:55:47;;;;;;;1.55;1.27;;;19.80;72.30;;;;;;2062407;28;20049;-67
2023/12/14 00:56:48;;;;;;;1.13;1.00;;;19.80;72.40;;;;;;2063449;28;20061;-67
2023/12/14 00:57:49;;;;;;;1.45;1.00;;;19.80;72.40;;;;;;2057666;28;20046;-68
2023/12/14 00:58:49;;;;;;;1.15;0.93;;;19.80;72.40;;;;;;2060935;28;20041;-67
2023/12/14 00:59:50;;;;;;;1.10;1.00;;;19.80;72.50;;;;;;2057592;28;20398;-67
2023/12/14 01:00:50;;;;;;;1.30;1.00;;;19.90;72.50;;;;;;2069801;28;20398;-68
2023/12/14 01:01:51;;;;;;;1.42;1.02;;;19.80;72.30;;;;;;2067957;28;20045;-68
2023/12/14 01:02:51;;;;;;;1.90;0.90;;;19.80;72.40;;;;;;2062272;28;20509;-68
2023/12/14 01:03:52;;;;;;;1.38;0.90;;;19.80;72.50;;;;;;2061182;28;20026;-68
2023/12/14 01:04:53;;;;;;;1.30;0.95;;;19.80;72.50;;;;;;2060721;28;20022;-67
2023/12/14 01:05:53;;;;;;;1.73;1.10;;;19.80;72.40;;;;;;2061927;28;20010;-67
2023/12/14 01:06:54;;;;;;;1.30;1.10;;;19.80;72.40;;;;;;2061782;28;20114;-67
2023/12/14 01:07:54;;;;;;;1.25;1.10;;;19.90;72.40;;;;;;2058090;28;20077;-67
2023/12/14 01:08:55;;;;;;;1.48;0.93;;;19.80;72.20;;;;;;2061588;28;20471;-67
2023/12/14 01:09:55;;;;;;;1.30;1.20;;;19.80;72.20;;;;;;2063312;28;20457;-68
2023/12/14 01:10:56;;;;;;;0.77;0.77;;;19.80;72.70;;;;;;2063256;28;20109;-67
2023/12/14 01:11:56;;;;;;;1.27;0.98;;;19.80;72.20;;;;;;2063561;28;20030;-68
2023/12/14 01:12:57;;;;;;;1.73;1.52;;;19.80;72.10;;;;;;2058847;28;20110;-68
2023/12/14 01:13:57;;;;;;;1.40;0.98;;;19.80;72.00;;;;;;2061371;28;20504;-67
2023/12/14 01:14:58;;;;;;;1.83;1.15;;;19.80;72.00;;;;;;2057960;28;20026;-68
2023/12/14 01:15:59;;;;;;;1.08;0.98;;;19.80;72.00;;;;;;2063135;28;20022;-68
2023/12/14 01:16:59;;;;;;;1.20;1.10;;;19.80;72.10;;;;;;2061147;28;20030;-67
2023/12/14 01:18:00;;;;;;;1.85;1.17;;;19.80;72.10;;;;;;2060995;28;20503;-67
2023/12/14 01:19:00;;;;;;;1.38;1.10;;;19.80;72.10;;;;;;2063032;28;20249;-67
2023/12/14 01:20:02;;;;;;;1.10;0.80;;;19.80;72.00;;;;;;2063336;28;20011;-67
2023/12/14 01:21:03;;;;;;;1.15;0.90;;;19.80;72.10;;;;;;2062353;28;20014;-67
2023/12/14 01:22:04;;;;;;;1.60;1.10;;;19.80;72.10;;;;;;2059089;28;20110;-68
2023/12/14 01:23:04;;;;;;;1.55;1.40;;;19.80;72.20;;;;;;2059779;28;20383;-68
2023/12/14 01:24:05;;;;;;;1.10;1.00;;;19.80;72.10;;;;;;2062001;28;20050;-68
2023/12/14 01:25:06;;;;;;;1.55;1.05;;;19.80;72.10;;;;;;2058745;28;20209;-68
2023/12/14 01:26:07;;;;;;;1.10;1.00;;;19.80;72.10;;;;;;2062229;28;20455;-68
2023/12/14 01:27:09;;;;;;;1.50;1.10;;;19.80;72.00;;;;;;2057865;28;20029;-67
2023/12/14 01:28:10;;;;;;;1.38;1.00;;;19.80;72.00;;;;;;2060516;28;20022;-67
2023/12/14 01:29:11;;;;;;;1.48;1.30;;;19.80;72.10;;;;;;2060338;28;20070;-67
2023/12/14 01:30:12;;;;;;;0.80;0.80;;;19.80;72.00;;;;;;2059994;28;20097;-67
2023/12/14 01:31:12;;;;;;;1.42;1.00;;;19.80;72.00;;;;;;2057158;28;20546;-68
2023/12/14 01:32:13;;;;;;;1.10;1.00;;;19.80;72.00;;;;;;2060742;28;20018;-67
2023/12/14 01:33:14;;;;;;;2.33;1.00;;;19.80;72.00;;;;;;2053894;28;20023;-68
2023/12/14 01:34:15;;;;;;;1.20;0.90;;;19.80;72.00;;;;;;2062324;28;20474;-68
2023/12/14 01:35:16;;;;;;;1.15;1.05;;;19.80;72.10;;;;;;2060580;28;20034;-68
2023/12/14 01:36:24;;;;;;;1.20;1.00;;;19.80;72.00;;;;;;2060689;28;20018;-67
2023/12/14 01:37:25;;;;;;;1.33;1.20;;;19.70;71.90;;;;;;2056334;28;20033;-67
2023/12/14 01:38:25;;;;;;;1.02;0.90;;;19.70;71.90;;;;;;2061894;28;20105;-68
2023/12/14 01:39:26;;;;;;;1.30;1.00;;;19.70;71.90;;;;;;2061095;28;20118;-67
2023/12/14 01:40:27;;;;;;;1.73;1.15;;;19.70;71.90;;;;;;2063277;28;20041;-68
2023/12/14 01:41:27;;;;;;;1.20;0.90;;;19.80;71.90;;;;;;2058875;28;20029;-68
2023/12/14 01:42:28;;;;;;;1.50;1.02;;;19.80;71.90;;;;;;2062504;28;20506;-68
2023/12/14 01:43:28;;;;;;;0.95;0.80;;;19.80;71.90;;;;;;2059160;28;20027;-68
2023/12/14 01:44:29;;;;;;;1.80;1.02;;;19.70;71.90;;;;;;2062013;28;20018;-68
2023/12/14 01:45:30;;;;;;;0.93;0.90;;;19.70;71.90;;;;;;2062328;28;20015;-68
2023/12/14 01:46:30;;;;;;;1.23;1.08;;;19.70;71.90;;;;;;2062915;28;20022;-68
2023/12/14 01:47:31;;;;;;;1.55;0.95;;;19.80;72.00;;;;;;2061649;28;20049;-68
2023/12/14 01:48:31;;;;;;;1.10;1.00;;;19.70;71.90;;;;;;2061277;28;20062;-68
2023/12/14 01:49:32;;;;;;;1.50;1.00;;;19.70;71.80;;;;;;2057867;28;20495;-67
2023/12/14 01:50:33;;;;;;;1.52;1.00;;;19.70;72.00;;;;;;2061063;28;20046;-68
2023/12/14 01:51:34;;;;;;;1.10;1.00;;;19.70;71.80;;;;;;2063145;28;20113;-67
2023/12/14 01:52:35;;;;;;;1.15;0.82;;;19.70;71.70;;;;;;2060514;28;20113;-68
2023/12/14 01:53:36;;;;;;;1.45;0.90;;;19.70;71.70;;;;;;2060148;28;20029;-67
2023/12/14 01:54:36;;;;;;;1.83;1.20;;;19.70;71.90;;;;;;2058043;28;20038;-67
2023/12/14 01:55:37;;;;;;;1.33;1.02;;;19.70;71.90;;;;;;2060353;28;20512;-69
2023/12/14 01:56:37;;;;;;;0.93;0.82;;;19.70;71.90;;;;;;2060528;28;20030;-68
2023/12/14 01:57:38;;;;;;;1.10;0.98;;;19.70;71.90;;;;;;2060527;28;20037;-68
2023/12/14 01:58:38;;;;;;;0.80;0.80;;;19.70;71.90;;;;;;2062934;28;20036;-67
2023/12/14 01:59:39;;;;;;;0.60;0.60;;;19.70;71.90;;;;;;2061579;28;20022;-68
2023/12/14 02:00:46;;;;;;;1.27;1.00;;;19.70;71.90;;;;;;2058718;28;20022;-68
2023/12/14 02:01:53;;;;;;;1.33;1.00;;;19.70;71.80;;;;;;2061417;28;20026;-68
2023/12/14 02:02:53;;;;;;;1.75;0.95;;;19.70;71.90;;;;;;2061442;28;20018;-68
2023/12/14 02:03:55;;;;;;;1.40;1.05;;;19.70;71.90;;;;;;2058171;28;20026;-67
2023/12/14 02:04:55;;;;;;;1.40;1.05;;;19.70;71.80;;;;;;2062816;28;20011;-68
2023/12/14 02:05:57;;;;;;;1.58;1.00;;;19.60;71.70;;;;;;2061807;28;20061;-67
2023/12/14 02:06:58;;;;;;;1.58;1.00;;;19.70;71.70;;;;;;2060130;28;20014;-68
2023/12/14 02:07:59;;;;;;;1.80;1.08;;;19.60;71.70;;;;;;2062679;28;20022;-68
2023/12/14 02:08:59;;;;;;;1.20;1.10;;;19.60;71.70;;;;;;2059591;28;20153;-67
2023/12/14 02:10:00;;;;;;;1.00;0.90;;;19.70;71.70;;;;;;2061877;28;20482;-67
2023/12/14 02:11:00;;;;;;;1.52;0.93;;;19.60;72.20;;;;;;2058949;28;20597;-68
2023/12/14 02:12:01;;;;;;;3.15;0.95;;;19.70;71.50;;;;;;2060502;28;20453;-67
2023/12/14 02:13:02;;;;;;;2.45;0.90;;;19.60;71.50;;;;;;2057916;28;20036;-68
2023/12/14 02:14:05;;;;;;;1.25;0.88;;;19.60;71.60;;;;;;2061952;28;20026;-68
2023/12/14 02:15:06;;;;;;;0.80;0.80;;;19.70;71.60;;;;;;2059873;28;20060;-68
2023/12/14 02:16:07;;;;;;;1.98;0.90;;;19.60;71.60;;;;;;2048445;28;20039;-67
2023/12/14 02:17:07;;;;;;;1.33;1.13;;;19.60;71.60;;;;;;2057400;28;20022;-67
2023/12/14 02:18:08;;;;;;;1.77;1.25;;;19.60;71.60;;;;;;2060757;28;20057;-67
2023/12/14 02:19:09;;;;;;;1.33;0.93;;;19.60;71.60;;;;;;2054972;28;20039;-68
2023/12/14 02:20:09;;;;;;;1.48;1.02;;;19.60;71.70;;;;;;2061141;28;20022;-68
2023/12/14 02:21:10;;;;;;;1.05;0.95;;;19.70;71.80;;;;;;2059944;28;20027;-67
2023/12/14 02:22:11;;;;;;;1.20;0.88;;;19.60;71.70;;;;;;2059848;28;20109;-68
2023/12/14 02:23:11;;;;;;;1.75;1.20;;;19.60;71.70;;;;;;2060720;28;20027;-68
2023/12/14 02:24:12;;;;;;;1.60;1.00;;;19.70;71.70;;;;;;2058874;28;20080;-68
2023/12/14 02:25:12;;;;;;;1.90;1.00;;;19.60;71.60;;;;;;2061585;28;20131;-68
2023/12/14 02:26:13;;;;;;;1.73;1.02;;;19.60;71.60;;;;;;2059564;28;20042;-67
2023/12/14 02:27:14;;;;;;;2.60;1.10;;;19.60;71.60;;;;;;2061608;28;20015;-68
2023/12/14 02:28:14;;;;;;;1.95;1.10;;;19.60;71.60;;;;;;2053309;28;20133;-67
2023/12/14 02:29:15;;;;;;;0.90;0.82;;;19.60;71.60;;;;;;2060308;28;20029;-67
2023/12/14 02:30:16;;;;;;;1.02;0.93;;;19.60;71.60;;;;;;2061468;28;20517;-68
2023/12/14 02:31:18;;;;;;;1.10;0.95;;;19.60;71.50;;;;;;2061794;28;20027;-67
2023/12/14 02:32:19;;;;;;;1.25;0.98;;;19.60;71.40;;;;;;2058687;28;20030;-68
2023/12/14 02:33:20;;;;;;;0.95;0.85;;;19.60;71.40;;;;;;2062255;28;20045;-68
2023/12/14 02:34:20;;;;;;;1.92;1.27;;;19.60;71.40;;;;;;2060480;28;21117;-68
2023/12/14 02:35:22;;;;;;;1.33;1.00;;;19.60;71.40;;;;;;2061664;28;20021;-67
2023/12/14 02:36:23;;;;;;;1.30;0.98;;;19.50;71.30;;;;;;2061476;28;20018;-67
2023/12/14 02:37:23;;;;;;;1.23;0.90;;;19.60;71.40;;;;;;2057630;28;20105;-67
2023/12/14 02:38:24;;;;;;;1.15;1.00;;;19.60;71.40;;;;;;2061209;28;20018;-68
2023/12/14 02:39:24;;;;;;;1.10;0.77;;;19.60;71.40;;;;;;2063033;28;20025;-67
2023/12/14 02:40:25;;;;;;;1.70;1.20;;;19.60;71.40;;;;;;2060276;28;20497;-68
2023/12/14 02:41:25;;;;;;;1.13;0.80;;;19.60;71.30;;;;;;2050407;28;20545;-68
2023/12/14 02:42:26;;;;;;;1.10;0.90;;;19.60;71.30;;;;;;2059482;28;20234;-68
2023/12/14 02:43:27;;;;;;;1.27;0.95;;;19.60;71.30;;;;;;2059849;28;20034;-68
2023/12/14 02:44:27;;;;;;;1.15;0.80;;;19.60;71.40;;;;;;2060495;28;20034;-67
2023/12/14 02:45:28;;;;;;;1.33;0.90;;;19.60;71.50;;;;;;2059202;28;20037;-68
2023/12/14 02:46:28;;;;;;;1.70;1.02;;;19.60;71.40;;;;;;2060354;28;20078;-68
2023/12/14 02:47:29;;;;;;;1.73;0.90;;;19.60;71.30;;;;;;2059593;28;20471;-68
2023/12/14 02:48:30;;;;;;;1.60;0.90;;;19.60;71.30;;;;;;2059813;28;20116;-68
2023/12/14 02:49:31;;;;;;;2.03;1.17;;;19.60;71.20;;;;;;2060803;28;20033;-67
2023/12/14 02:50:31;;;;;;;3.78;1.20;;;19.60;71.20;;;;;;2062058;28;20291;-68
2023/12/14 02:51:32;;;;;;;1.38;1.10;;;19.60;71.20;;;;;;2060642;28;20081;-67
2023/12/14 02:52:32;;;;;;;1.10;0.93;;;19.60;71.20;;;;;;2059726;28;20047;-67
2023/12/14 02:53:33;;;;;;;1.17;0.88;;;19.60;71.10;;;;;;2058876;28;20484;-68
2023/12/14 02:54:33;;;;;;;1.23;1.00;;;19.60;71.20;;;;;;2061387;28;20058;-67
2023/12/14 02:55:34;;;;;;;2.03;1.00;;;19.50;71.10;;;;;;2060829;28;20383;-68
2023/12/14 02:56:34;;;;;;;0.88;0.80;;;19.60;71.30;;;;;;2061299;28;20108;-67
2023/12/14 02:57:35;;;;;;;1.00;0.88;;;19.50;71.20;;;;;;2060433;28;20068;-67
2023/12/14 02:58:35;;;;;;;2.05;1.10;;;19.60;71.30;;;;;;2059926;28;20608;-67
2023/12/14 02:59:36;;;;;;;1.90;1.33;;;19.60;71.40;;;;;;2059724;28;20045;-67
2023/12/14 03:00:37;;;;;;;1.58;1.30;;;19.60;71.20;;;;;;2059634;28;20023;-68
2023/12/14 03:01:37;;;;;;;1.10;1.00;;;19.60;71.20;;;;;;2059939;28;20110;-67
2023/12/14 03:02:38;;;;;;;1.83;1.00;;;19.60;71.20;;;;;;2059432;28;20049;-68
2023/12/14 03:03:39;;;;;;;1.08;0.93;;;19.50;71.10;;;;;;2063044;28;20498;-67
2023/12/14 03:04:40;;;;;;;1.45;0.82;;;19.50;71.10;;;;;;2060464;28;20058;-67
2023/12/14 03:05:41;;;;;;;1.20;1.05;;;19.50;71.00;;;;;;2061137;28;20066;-67
2023/12/14 03:06:41;;;;;;;1.58;1.00;;;19.50;71.00;;;;;;2059276;28;20027;-68
2023/12/14 03:07:42;;;;;;;2.92;1.10;;;19.60;71.00;;;;;;2061012;28;20018;-67
2023/12/14 03:08:42;;;;;;;1.38;1.02;;;19.50;70.90;;;;;;2058764;28;20049;-67
2023/12/14 03:09:44;;;;;;;1.20;0.93;;;19.50;70.90;;;;;;2061301;28;20076;-67
2023/12/14 03:10:44;;;;;;;1.70;1.05;;;19.50;70.80;;;;;;2058415;28;20169;-68
2023/12/14 03:11:45;;;;;;;1.15;0.90;;;19.60;70.90;;;;;;2061835;28;20407;-67
2023/12/14 03:12:46;;;;;;;1.35;1.10;;;19.50;70.80;;;;;;2060672;28;20502;-67
2023/12/14 03:13:46;;;;;;;0.95;0.75;;;19.50;70.80;;;;;;2060054;28;20458;-67
2023/12/14 03:14:47;;;;;;;1.27;1.00;;;19.50;70.90;;;;;;2059272;28;20102;-68
2023/12/14 03:15:49;;;;;;;1.48;0.95;;;19.50;70.90;;;;;;2061563;28;20027;-67
2023/12/14 03:16:49;;;;;;;1.40;1.08;;;19.50;71.00;;;;;;2058750;28;20030;-67
2023/12/14 03:17:50;;;;;;;0.90;0.80;;;19.50;71.00;;;;;;2060503;28;20406;-67
2023/12/14 03:18:53;;;;;;;1.35;1.10;;;19.50;71.00;;;;;;2061412;28;20022;-68
2023/12/14 03:19:53;;;;;;;1.25;1.00;;;19.50;71.00;;;;;;2062606;28;20037;-67
2023/12/14 03:20:54;;;;;;;1.10;0.82;;;19.50;71.00;;;;;;2061815;28;20117;-68
2023/12/14 03:21:54;;;;;;;3.10;1.00;;;19.50;70.90;;;;;;2051496;28;20018;-67
2023/12/14 03:22:55;;;;;;;1.73;0.90;;;19.50;71.00;;;;;;2060020;28;20019;-68
2023/12/14 03:23:55;;;;;;;1.33;1.08;;;19.50;70.80;;;;;;2061153;28;20022;-68
2023/12/14 03:24:56;;;;;;;1.52;1.00;;;19.50;70.80;;;;;;2061423;28;20026;-68
2023/12/14 03:25:57;;;;;;;1.77;0.70;;;19.50;70.70;;;;;;2061783;28;20018;-67
2023/12/14 03:26:57;;;;;;;1.35;1.10;;;19.50;70.70;;;;;;2059785;28;20034;-68
2023/12/14 03:27:58;;;;;;;1.10;0.95;;;19.50;70.70;;;;;;2061798;28;20505;-67
2023/12/14 03:28:58;;;;;;;1.83;0.80;;;19.50;70.80;;;;;;2062128;28;20126;-68
2023/12/14 03:29:59;;;;;;;1.75;0.90;;;19.50;70.80;;;;;;2060704;28;20638;-67
2023/12/14 03:31:00;;;;;;;1.50;0.90;;;19.40;70.70;;;;;;2061380;28;20031;-67
2023/12/14 03:32:01;;;;;;;0.93;0.70;;;19.50;70.80;;;;;;2059392;28;20062;-67
2023/12/14 03:33:01;;;;;;;1.50;1.15;;;19.50;71.10;;;;;;2060250;28;20026;-67
2023/12/14 03:34:02;;;;;;;1.00;0.80;;;19.50;70.80;;;;;;2062400;28;20402;-67
2023/12/14 03:35:03;;;;;;;1.40;1.00;;;19.40;70.70;;;;;;2062045;28;20050;-67
2023/12/14 03:36:04;;;;;;;1.45;1.00;;;19.50;70.70;;;;;;2061851;28;20250;-67
2023/12/14 03:37:05;;;;;;;1.23;0.85;;;19.50;71.00;;;;;;2063797;28;20030;-67
2023/12/14 03:38:05;;;;;;;0.80;0.80;;;19.50;70.80;;;;;;2063787;28;20064;-67
2023/12/14 03:39:06;;;;;;;1.58;1.25;;;19.40;70.70;;;;;;2060988;28;20106;-68
2023/12/14 03:40:07;;;;;;;1.70;1.00;;;19.40;70.70;;;;;;2062299;28;20050;-68
2023/12/14 03:41:08;;;;;;;0.98;0.88;;;19.40;70.70;;;;;;2062966;28;20025;-68
2023/12/14 03:42:08;;;;;;;1.33;0.98;;;19.30;70.60;;;;;;2060733;28;20380;-67
2023/12/14 03:43:09;;;;;;;1.35;0.98;;;19.40;70.70;;;;;;2058661;28;20154;-67
2023/12/14 03:44:09;;;;;;;1.10;0.90;;;19.40;70.60;;;;;;2058988;28;20410;-67
2023/12/14 03:45:10;;;;;;;1.23;1.02;;;19.40;70.60;;;;;;2063078;28;20054;-67
2023/12/14 03:46:11;;;;;;;1.10;0.90;;;19.40;70.50;;;;;;2060536;28;20023;-67
2023/12/14 03:47:12;;;;;;;1.42;0.80;;;19.50;70.70;;;;;;2061278;28;20054;-67
2023/12/14 03:48:12;;;;;;;1.10;0.77;;;19.40;70.60;;;;;;2061606;28;20037;-68
2023/12/14 03:49:13;;;;;;;1.55;1.13;;;19.40;70.60;;;;;;2063330;28;20391;-67
2023/12/14 03:50:13;;;;;;;1.67;0.90;;;19.40;70.60;;;;;;2063278;28;20031;-67
2023/12/14 03:51:18;;;;;;;1.08;0.70;;;19.40;70.70;;;;;;2061435;28;20463;-67
2023/12/14 03:52:18;;;;;;;1.35;1.00;;;19.40;70.70;;;;;;2061800;28;20034;-68
2023/12/14 03:53:19;;;;;;;1.35;0.90;;;19.40;70.70;;;;;;2063187;28;20053;-68
2023/12/14 03:54:20;;;;;;;2.00;0.95;;;19.40;70.60;;;;;;2062691;28;20039;-67
2023/12/14 03:55:20;;;;;;;1.27;1.00;;;19.40;70.70;;;;;;2062987;28;20027;-67
2023/12/14 03:56:21;;;;;;;0.90;0.80;;;19.40;70.60;;;;;;2062422;28;20041;-67
2023/12/14 03:57:21;;;;;;;1.08;0.80;;;19.40;70.60;;;;;;2063054;28;20523;-68
2023/12/14 03:58:22;;;;;;;1.00;0.90;;;19.40;70.50;;;;;;2062218;28;20117;-67
2023/12/14 03:59:23;;;;;;;1.15;1.00;;;19.40;70.50;;;;;;2062759;28;20054;-67
2023/12/14 04:00:23;;;;;;;1.70;1.08;;;19.50;70.50;;;;;;2058275;28;20588;-67
2023/12/14 04:01:24;;;;;;;1.58;0.90;;;19.40;70.50;;;;;;2059349;28;20136;-68
2023/12/14 04:02:24;;;;;;;0.82;0.70;;;19.40;70.50;;;;;;2062439;28;20107;-67
2023/12/14 04:03:25;;;;;;;1.63;0.93;;;19.40;70.50;;;;;;2061345;28;20015;-68
2023/12/14 04:04:25;;;;;;;1.13;0.88;;;19.40;70.50;;;;;;2058518;28;20022;-67
2023/12/14 04:05:26;;;;;;;1.33;0.90;;;19.40;70.50;;;;;;2060542;28;20054;-68
2023/12/14 04:06:27;;;;;;;1.38;0.90;;;19.40;70.70;;;;;;2060316;28;20035;-68
2023/12/14 04:07:27;;;;;;;0.98;0.75;;;19.40;70.60;;;;;;2060961;28;20027;-68
2023/12/14 04:08:28;;;;;;;0.85;0.80;;;19.40;70.50;;;;;;2062735;28;20033;-68
2023/12/14 04:09:28;;;;;;;1.38;0.90;;;19.40;70.50;;;;;;2062469;28;20067;-67
2023/12/14 04:10:29;;;;;;;1.20;1.00;;;19.40;70.50;;;;;;2059696;28;20029;-67
2023/12/14 04:11:29;;;;;;;1.10;0.80;;;19.40;70.40;;;;;;2057767;28;20106;-67
2023/12/14 04:12:30;;;;;;;1.10;0.90;;;19.40;70.40;;;;;;2061179;28;20015;-68
2023/12/14 04:13:31;;;;;;;1.85;1.15;;;19.40;70.50;;;;;;2062243;28;20068;-67
2023/12/14 04:14:31;;;;;;;1.60;0.98;;;19.40;70.50;;;;;;2063624;28;20023;-67
2023/12/14 04:15:32;;;;;;;1.45;0.90;;;19.40;70.50;;;;;;2062659;28;20478;-67
2023/12/14 04:16:32;;;;;;;0.95;0.82;;;19.40;70.50;;;;;;2052269;28;20074;-67
2023/12/14 04:17:33;;;;;;;1.02;0.93;;;19.40;70.40;;;;;;2060669;28;20030;-67
2023/12/14 04:18:34;;;;;;;1.10;0.90;;;19.40;70.30;;;;;;2062426;28;20018;-67
2023/12/14 04:19:35;;;;;;;1.35;0.80;;;19.30;70.30;;;;;;2059659;28;20022;-67
2023/12/14 04:20:35;;;;;;;0.80;0.70;;;19.40;70.40;;;;;;2061303;28;20042;-68
2023/12/14 04:21:37;;;;;;;1.75;0.88;;;19.40;70.50;;;;;;2063050;28;20060;-67
2023/12/14 04:22:38;;;;;;;0.98;0.88;;;19.40;70.40;;;;;;2062536;28;20019;-67
2023/12/14 04:23:38;;;;;;;1.27;0.90;;;19.40;70.40;;;;;;2063124;28;20034;-68
2023/12/14 04:24:39;;;;;;;0.98;0.80;;;19.40;70.40;;;;;;2061379;28;20498;-68
2023/12/14 04:25:39;;;;;;;1.45;1.00;;;19.30;70.40;;;;;;2062393;28;20391;-67
2023/12/14 04:26:40;;;;;;;1.13;0.73;;;19.40;70.40;;;;;;2060265;28;20387;-68
2023/12/14 04:27:40;;;;;;;0.85;0.70;;;19.30;70.30;;;;;;2060355;28;20030;-67
2023/12/14 04:28:43;;;;;;;1.20;1.00;;;19.30;70.30;;;;;;2061472;28;20026;-68
2023/12/14 04:29:44;;;;;;;0.80;0.75;;;19.40;70.30;;;;;;2059462;28;20027;-68
2023/12/14 04:30:44;;;;;;;1.40;0.90;;;19.30;70.30;;;;;;2061838;28;20525;-67
2023/12/14 04:31:45;;;;;;;1.10;0.98;;;19.30;70.30;;;;;;2061034;28;20149;-67
2023/12/14 04:32:47;;;;;;;2.33;1.20;;;19.30;70.30;;;;;;2059306;28;20034;-67
2023/12/14 04:33:48;;;;;;;2.13;1.08;;;19.30;70.30;;;;;;2062299;28;20398;-67
2023/12/14 04:34:48;;;;;;;0.80;0.70;;;19.30;70.20;;;;;;2061810;28;20076;-68
2023/12/14 04:35:49;;;;;;;1.13;0.80;;;19.30;70.20;;;;;;2062982;28;20105;-68
2023/12/14 04:36:49;;;;;;;1.42;1.00;;;19.30;70.20;;;;;;2059151;28;20065;-68
2023/12/14 04:37:50;;;;;;;1.15;0.88;;;19.30;70.30;;;;;;2060772;28;20030;-67
2023/12/14 04:38:51;;;;;;;1.25;0.80;;;19.30;70.20;;;;;;2060788;28;20026;-67
2023/12/14 04:39:51;;;;;;;1.00;0.90;;;19.30;70.20;;;;;;2063586;28;20022;-67
2023/12/14 04:40:52;;;;;;;1.20;0.95;;;19.30;70.20;;;;;;2063267;28;20037;-67
2023/12/14 04:41:53;;;;;;;1.35;0.93;;;19.30;70.20;;;;;;2062956;28;20019;-68
2023/12/14 04:42:54;;;;;;;1.20;0.73;;;19.30;70.20;;;;;;2058293;28;20027;-68
2023/12/14 04:43:54;;;;;;;1.60;1.00;;;19.30;70.20;;;;;;2058456;28;20015;-68
2023/12/14 04:44:55;;;;;;;1.27;1.00;;;19.30;70.20;;;;;;2057355;28;20026;-68
2023/12/14 04:45:55;;;;;;;1.00;0.88;;;19.30;70.10;;;;;;2060255;28;20078;-68
2023/12/14 04:46:56;;;;;;;1.08;0.90;;;19.30;70.20;;;;;;2060089;28;20558;-68
2023/12/14 04:47:56;;;;;;;1.70;0.90;;;19.30;70.20;;;;;;2062323;28;20469;-67
2023/12/14 04:48:57;;;;;;;1.10;0.90;;;19.30;70.20;;;;;;2062958;28;20022;-67
2023/12/14 04:49:57;;;;;;;0.93;0.82;;;19.30;70.20;;;;;;2063435;28;20037;-67
2023/12/14 04:50:58;;;;;;;1.17;1.00;;;19.30;70.20;;;;;;2059191;28;20035;-67
2023/12/14 04:51:59;;;;;;;2.08;0.98;;;19.30;70.20;;;;;;2062192;28;20498;-67
2023/12/14 04:52:59;;;;;;;1.02;0.80;;;19.30;70.20;;;;;;2060724;28;21754;-67
2023/12/14 04:54:00;;;;;;;1.45;0.90;;;19.30;70.20;;;;;;2063320;28;20093;-67
2023/12/14 04:55:00;;;;;;;1.50;0.90;;;19.30;70.20;;;;;;2060064;28;20373;-67
2023/12/14 04:56:01;;;;;;;1.13;0.80;;;19.30;70.30;;;;;;2062813;28;20105;-68
2023/12/14 04:57:01;;;;;;;1.02;0.90;;;19.30;70.20;;;;;;2059981;28;20521;-67
2023/12/14 04:58:02;;;;;;;2.13;1.08;;;19.30;70.20;;;;;;2062515;28;20330;-67
2023/12/14 04:59:03;;;;;;;0.80;0.80;;;19.30;70.20;;;;;;2062565;28;20074;-67
2023/12/14 05:00:05;;;;;;;1.73;1.00;;;19.30;70.20;;;;;;2059847;28;20018;-68
2023/12/14 05:01:06;;;;;;;1.38;1.00;;;19.30;70.30;;;;;;2059048;28;20182;-68
2023/12/14 05:02:07;;;;;;;1.38;1.00;;;19.30;70.30;;;;;;2054739;28;20483;-67
2023/12/14 05:03:08;;;;;;;1.58;0.95;;;19.30;70.20;;;;;;2054205;28;20037;-67
2023/12/14 05:04:08;;;;;;;1.17;0.80;;;19.30;70.20;;;;;;2061006;28;20092;-67
2023/12/14 05:05:09;;;;;;;1.33;0.80;;;19.20;70.10;;;;;;2058640;28;20027;-68
2023/12/14 05:06:10;;;;;;;1.10;1.00;;;19.20;70.10;;;;;;2059505;28;20224;-67
2023/12/14 05:07:10;;;;;;;1.25;0.90;;;19.20;70.00;;;;;;2062430;28;20022;-67
2023/12/14 05:08:11;;;;;;;1.58;1.00;;;19.20;70.00;;;;;;2058255;28;20051;-67
2023/12/14 05:09:11;;;;;;;1.00;0.85;;;19.20;70.10;;;;;;2060310;28;20395;-67
2023/12/14 05:10:12;;;;;;;1.33;0.90;;;19.20;70.00;;;;;;2062887;28;20030;-68
2023/12/14 05:11:13;;;;;;;1.00;0.85;;;19.20;70.00;;;;;;2060508;28;20022;-67
2023/12/14 05:12:14;;;;;;;1.13;0.75;;;19.20;70.00;;;;;;2060797;28;20405;-67
2023/12/14 05:13:14;;;;;;;1.10;0.93;;;19.20;70.00;;;;;;2063253;28;20034;-67
2023/12/14 05:14:15;;;;;;;1.20;0.90;;;19.20;70.00;;;;;;2060328;28;20124;-68
2023/12/14 05:15:15;;;;;;;1.63;0.70;;;19.20;70.00;;;;;;2059701;28;20026;-67
2023/12/14 05:16:16;;;;;;;1.33;0.80;;;19.20;69.90;;;;;;2059478;28;20565;-67